EGOM 020620Z AUTO 26007KT 9000 BR OVC003/// 07/07 Q1014
From batch tds/metars/production/2022/10/2/h06_m59_metars.cache.csv.gz
Observed at (about 1 hour ago)
Identifier EGOM
EGOM 020550Z AUTO 26005KT 9999 BR OVC003/// 07/07 Q1013
From batch tds/metars/production/2022/10/2/h06_m21_metars.cache.csv.gz
Observed at (about 2 hours ago)
Identifier EGOM
EGOM 020520Z AUTO 27006KT 9999 BR OVC002/// 07/07 Q1013
From batch tds/metars/production/2022/10/2/h05_m49_metars.cache.csv.gz
Observed at (about 2 hours ago)
Identifier EGOM
EGOM 020420Z AUTO 26006KT 6000 BR BKN003/// 07/06 Q1011
From batch tds/metars/production/2022/10/2/h04_m54_metars.cache.csv.gz
Observed at (about 3 hours ago)
Identifier EGOM
EGOM 020350Z AUTO 27008KT 9999 FEW008/// 07/06 Q1011
From batch tds/metars/production/2022/10/2/h04_m25_metars.cache.csv.gz
Observed at (about 4 hours ago)
Identifier EGOM
EGOM 020320Z AUTO 26007KT 9999 FEW009/// 07/07 Q1011
From batch tds/metars/production/2022/10/2/h03_m55_metars.cache.csv.gz
Observed at (about 4 hours ago)
Identifier EGOM
EGOM 020250Z AUTO 27011KT 9999 SCT021/// 08/07 Q1010
From batch tds/metars/production/2022/10/2/h03_m29_metars.cache.csv.gz
Observed at (about 5 hours ago)
Identifier EGOM
EGOM 020220Z AUTO 27012KT 9999 FEW006/// 08/07 Q1010
From batch tds/metars/production/2022/10/2/h02_m59_metars.cache.csv.gz
Observed at (about 5 hours ago)
Identifier EGOM
EGOM 020120Z AUTO 26011KT 9999 FEW023/// 08/07 Q1010
From batch tds/metars/production/2022/10/2/h01_m58_metars.cache.csv.gz
Observed at (about 6 hours ago)
Identifier EGOM
EGOM 020050Z AUTO 26010KT 9999 FEW022/// 08/07 Q1009
From batch tds/metars/production/2022/10/2/h01_m29_metars.cache.csv.gz
Observed at (about 7 hours ago)
Identifier EGOM
EGOM 012320Z AUTO 27008KT 9999 SCT026/// 08/07 Q1008
From batch tds/metars/production/2022/10/1/h23_m51_metars.cache.csv.gz
Observed at (about 8 hours ago)
Identifier EGOM
EGOM 012250Z AUTO 27012KT 9999 FEW059/// 08/07 Q1007
From batch tds/metars/production/2022/10/1/h23_m23_metars.cache.csv.gz
Observed at (about 9 hours ago)
Identifier EGOM
EGOM 012220Z AUTO 27012KT 9999 // NCD 08/07 Q1007
From batch tds/metars/production/2022/10/1/h22_m59_metars.cache.csv.gz
Observed at (about 9 hours ago)
Identifier EGOM
EGOM 012050Z AUTO 27015KT 9999 RA OVC019/// 09/08 Q1006
From batch tds/metars/production/2022/10/1/h21_m29_metars.cache.csv.gz
Observed at (about 11 hours ago)
Identifier EGOM
EGOM 011850Z AUTO 25014KT 9999 // FEW040/// 09/08 Q1004
From batch tds/metars/production/2022/10/1/h19_m26_metars.cache.csv.gz
Observed at (about 13 hours ago)
Identifier EGOM
EGOM 011650Z AUTO 25014KT 9999 // FEW045/// 10/08 Q1003
From batch tds/metars/production/2022/10/1/h17_m24_metars.cache.csv.gz
Observed at (about 15 hours ago)
Identifier EGOM
EGOM 011550Z AUTO 25020KT 9999 -RA OVC016/// 12/09 Q1002
From batch tds/metars/production/2022/10/1/h16_m29_metars.cache.csv.gz
Observed at (about 16 hours ago)
Identifier EGOM
EGOM 011520Z AUTO 25023G34KT 9999 // OVC015/// 12/09 Q1002
From batch tds/metars/production/2022/10/1/h15_m59_metars.cache.csv.gz
Observed at (about 16 hours ago)
Identifier EGOM
EGOM 011450Z AUTO 25022G33KT 9999 -RA OVC015/// 12/10 Q1001
From batch tds/metars/production/2022/10/1/h15_m21_metars.cache.csv.gz
Observed at (about 17 hours ago)
Identifier EGOM
EGOM 011420Z AUTO 26018G28KT 9999 -RA OVC013/// 11/10 Q1001
From batch tds/metars/production/2022/10/1/h14_m58_metars.cache.csv.gz
Observed at (about 17 hours ago)
Identifier EGOM
EGOM 011350Z AUTO 26023G34KT 3000 -RA OVC012/// 11/09 Q1001
From batch tds/metars/production/2022/10/1/h14_m22_metars.cache.csv.gz
Observed at (about 18 hours ago)
Identifier EGOM
EGOM 011320Z AUTO 25021KT 9999 OVC015/// 12/09 Q1001
From batch tds/metars/production/2022/10/1/h13_m52_metars.cache.csv.gz
Observed at (about 18 hours ago)
Identifier EGOM
EGOM 011220Z AUTO 25022KT 9999 // OVC012/// 12/09 Q1000
From batch tds/metars/production/2022/10/1/h12_m54_metars.cache.csv.gz
Observed at (about 19 hours ago)
Identifier EGOM
EGOM 011150Z AUTO 25020G30KT 9999 // OVC008/// 13/10 Q1000
From batch tds/metars/production/2022/10/1/h12_m23_metars.cache.csv.gz
Observed at (about 20 hours ago)
Identifier EGOM
EGOM 011050Z AUTO 26022G34KT 9999 OVC013/// 12/09 Q0999
From batch tds/metars/production/2022/10/1/h11_m19_metars.cache.csv.gz
Observed at (about 21 hours ago)
Identifier EGOM
EGOM 011020Z AUTO 26022G33KT 9999 OVC011/// 12/09 Q0999
From batch tds/metars/production/2022/10/1/h10_m54_metars.cache.csv.gz
Observed at (about 21 hours ago)
Identifier EGOM
EGOM 010950Z AUTO 27023G33KT 9999 OVC009/// 11/09 Q0998
From batch tds/metars/production/2022/10/1/h10_m25_metars.cache.csv.gz
Observed at (about 22 hours ago)
Identifier EGOM
EGOM 010920Z AUTO 27020KT 9999 OVC010/// 11/09 Q0998
From batch tds/metars/production/2022/10/1/h09_m50_metars.cache.csv.gz
Observed at (about 22 hours ago)
Identifier EGOM
EGOM 010850Z AUTO 27021KT 9999 OVC008/// 10/09 Q0998
From batch tds/metars/production/2022/10/1/h09_m19_metars.cache.csv.gz
Observed at (about 23 hours ago)
Identifier EGOM
EGOM 010820Z AUTO 27019KT 9999 OVC008/// 10/09 Q0997
From batch tds/metars/production/2022/10/1/h08_m53_metars.cache.csv.gz
Observed at (about 23 hours ago)
Identifier EGOM
EGOM 010750Z AUTO 27021KT 9999 OVC008/// 10/08 Q0997
From batch tds/metars/production/2022/10/1/h08_m29_metars.cache.csv.gz
Observed at (about 24 hours ago)
Identifier EGOM
talk